Terminal Aerodrome Forecast
Issued by NWS

Home | Current Version | Previous Version | Text Only | Print | Product List | Glossary On
Versions: 1 2 3 4 5 6 7 8 9 10 11 12 13 14 15 16
000
FTUS45 KGGW 251700
TAFSDY
TAF
KSDY 251720Z 2518/2618 14012KT P6SM FEW015 BKN090
      TEMPO 2518/2522 BKN018
     FM260000 29015KT 5SM -SHRA BKN020 OVC035
     FM260300 30009KT 2SM -SHRA BKN020 OVC027
     FM260600 VRB04KT P6SM VCSH FEW035 BKN045
      AMD LTD TO CLD VIS AND WIND=

USA.gov is the U.S. government's official web portal to all federal, state and local government web resources and services.